Time;durP1;ratioP1;P1;durP2;ratioP2;P2;SDS_P1;SDS_P2;PMS_P1;PMS_P2;Temp;Humidity;BMP_temperature;BMP_pressure;BME280_temperature;BME280_humidity;BME280_pressure;Samples;Min_cycle;Max_cycle;Signal;HPM_P1;HPM_P2
2021/09/09 00:01:31;;;;;;;20.20;12.75;;;;;;;17.94;76.45;100804.69;4983901;28;20429;-68
2021/09/09 00:03:59;;;;;;;19.33;11.93;;;;;;;17.88;76.63;100805.00;4986986;28;20500;-67
2021/09/09 00:06:27;;;;;;;21.25;12.10;;;;;;;17.86;76.94;100809.47;4990442;28;20393;-67
2021/09/09 00:08:54;;;;;;;19.83;12.57;;;;;;;17.84;76.75;100801.66;4985961;28;20092;-68
2021/09/09 00:11:21;;;;;;;16.75;11.77;;;;;;;17.86;76.56;100804.19;4985447;28;20059;-68
2021/09/09 00:13:47;;;;;;;20.20;12.43;;;;;;;17.85;76.57;100795.47;4989528;28;20093;-68
2021/09/09 00:16:14;;;;;;;19.40;12.52;;;;;;;17.84;76.80;100796.41;4982994;28;20054;-67
2021/09/09 00:18:40;;;;;;;24.60;13.38;;;;;;;17.78;76.92;100788.78;4984503;28;20050;-68
2021/09/09 00:21:07;;;;;;;16.10;11.82;;;;;;;17.77;77.38;100788.88;4990512;28;20058;-67
2021/09/09 00:23:35;;;;;;;20.42;11.90;;;;;;;17.77;77.29;100794.13;4990790;28;20132;-68
2021/09/09 00:26:03;;;;;;;17.23;11.68;;;;;;;17.72;76.66;100779.41;4974708;28;20050;-67
2021/09/09 00:28:30;;;;;;;17.83;12.23;;;;;;;17.64;76.84;100781.56;4984151;28;20042;-68
2021/09/09 00:30:56;;;;;;;21.60;12.80;;;;;;;17.58;77.32;100779.25;4989751;28;20503;-66
2021/09/09 00:33:23;;;;;;;20.20;12.70;;;;;;;17.52;77.81;100776.88;4989514;28;20061;-67
2021/09/09 00:35:49;;;;;;;18.98;12.45;;;;;;;17.48;78.03;100775.34;4982813;28;20046;-67
2021/09/09 00:38:16;;;;;;;21.50;12.13;;;;;;;17.47;78.21;100773.63;4988505;28;20066;-67
2021/09/09 00:40:44;;;;;;;16.38;11.77;;;;;;;17.44;78.20;100765.88;4988385;28;20570;-68
2021/09/09 00:43:11;;;;;;;17.75;11.45;;;;;;;17.43;78.09;100761.53;4988512;28;20050;-68
2021/09/09 00:45:37;;;;;;;18.08;12.35;;;;;;;17.37;78.44;100762.69;4989396;28;20046;-68
2021/09/09 00:48:04;;;;;;;17.55;12.77;;;;;;;17.34;78.62;100766.31;4989519;28;20058;-67
2021/09/09 00:50:31;;;;;;;18.67;12.32;;;;;;;17.34;78.73;100758.44;4990464;28;20057;-67
2021/09/09 00:52:57;;;;;;;16.80;11.93;;;;;;;17.33;78.63;100759.34;4984120;28;20058;-67
2021/09/09 00:55:24;;;;;;;17.27;12.75;;;;;;;17.29;78.90;100755.19;4986537;28;20047;-67
2021/09/09 00:57:51;;;;;;;15.65;11.65;;;;;;;17.24;78.91;100747.50;4990196;28;20066;-67
2021/09/09 01:00:18;;;;;;;16.50;11.95;;;;;;;17.22;79.02;100745.88;4990631;28;20390;-68
2021/09/09 01:02:45;;;;;;;17.13;11.70;;;;;;;17.19;79.26;100748.66;4991761;28;20069;-68
2021/09/09 01:05:12;;;;;;;22.17;13.50;;;;;;;17.15;79.32;100750.56;4988902;28;20054;-68
2021/09/09 01:07:40;;;;;;;15.68;11.00;;;;;;;17.11;79.64;100746.38;4988504;28;20051;-68
2021/09/09 01:10:07;;;;;;;19.17;12.45;;;;;;;17.12;79.72;100744.63;4989401;28;20049;-68
2021/09/09 01:12:33;;;;;;;17.48;11.98;;;;;;;17.07;79.78;100747.44;4983701;28;20066;-68
2021/09/09 01:15:01;;;;;;;19.35;12.98;;;;;;;17.07;79.95;100740.41;4988185;28;20046;-68
2021/09/09 01:17:28;;;;;;;18.23;11.48;;;;;;;17.06;79.75;100735.25;4983328;28;20054;-68
2021/09/09 01:19:54;;;;;;;19.63;12.80;;;;;;;17.04;79.96;100732.66;4987212;28;20117;-68
2021/09/09 01:22:21;;;;;;;18.92;11.75;;;;;;;16.96;80.30;100734.81;4988848;28;20069;-68
2021/09/09 01:24:49;;;;;;;21.75;12.07;;;;;;;16.93;80.17;100730.53;4990534;28;20054;-68
2021/09/09 01:27:16;;;;;;;17.02;12.18;;;;;;;16.93;80.54;100727.00;4989328;28;20619;-68
2021/09/09 01:29:44;;;;;;;19.17;12.43;;;;;;;16.96;80.37;100721.66;4991546;28;20046;-67
2021/09/09 01:32:11;;;;;;;22.65;12.73;;;;;;;16.93;80.41;100727.91;4983901;28;20050;-68
2021/09/09 01:34:38;;;;;;;16.67;11.10;;;;;;;16.89;80.54;100715.81;4987949;28;20057;-68
2021/09/09 01:37:05;;;;;;;18.17;12.00;;;;;;;16.85;80.69;100723.91;4984857;28;20047;-68
2021/09/09 01:39:32;;;;;;;20.52;13.00;;;;;;;16.82;80.97;100724.06;4991994;28;20073;-67
2021/09/09 01:42:00;;;;;;;16.52;12.38;;;;;;;16.81;80.93;100717.94;4986523;28;20112;-68
2021/09/09 01:44:29;;;;;;;17.80;12.38;;;;;;;16.75;81.07;100715.59;4989679;28;20042;-68
2021/09/09 01:46:56;;;;;;;15.23;11.25;;;;;;;16.78;81.19;100710.19;4983246;28;20415;-68
2021/09/09 01:49:22;;;;;;;18.42;12.73;;;;;;;16.77;81.29;100717.22;4989180;28;20042;-68
2021/09/09 01:51:49;;;;;;;23.70;12.48;;;;;;;16.78;81.15;100716.31;4988909;28;20053;-68
2021/09/09 01:54:15;;;;;;;20.13;12.30;;;;;;;16.78;80.93;100711.06;4988301;28;20057;-67
2021/09/09 01:56:42;;;;;;;18.77;12.55;;;;;;;16.73;81.01;100713.03;4986550;28;20043;-66
2021/09/09 01:59:10;;;;;;;21.30;12.65;;;;;;;16.68;81.34;100714.16;4989746;28;20109;-67
2021/09/09 02:01:36;;;;;;;16.33;11.82;;;;;;;16.62;81.60;100707.41;4986037;28;20105;-68
2021/09/09 02:04:03;;;;;;;24.48;13.27;;;;;;;16.58;81.82;100697.97;4988168;28;20054;-67
2021/09/09 02:06:29;;;;;;;19.83;12.63;;;;;;;16.53;82.10;100707.81;4992010;28;20424;-68
2021/09/09 02:08:56;;;;;;;16.85;12.25;;;;;;;16.50;82.25;100700.94;4988803;28;20097;-67
2021/09/09 02:11:24;;;;;;;21.27;13.35;;;;;;;16.55;82.27;100700.72;4988724;28;20046;-67
2021/09/09 02:13:50;;;;;;;19.50;12.52;;;;;;;16.53;82.19;100699.94;4981770;28;20059;-66
2021/09/09 02:16:18;;;;;;;17.67;12.00;;;;;;;16.55;82.17;100700.72;4986102;28;20050;-67
2021/09/09 02:18:44;;;;;;;19.42;12.00;;;;;;;16.54;82.14;100693.75;4984036;28;20081;-68
2021/09/09 02:21:11;;;;;;;19.48;12.18;;;;;;;16.54;82.16;100688.50;4985037;28;20488;-68
2021/09/09 02:23:38;;;;;;;18.45;12.27;;;;;;;16.44;82.39;100688.94;4990640;28;20467;-68
2021/09/09 02:26:05;;;;;;;19.45;12.95;;;;;;;16.36;82.62;100688.41;4978501;28;20093;-68
2021/09/09 02:28:31;;;;;;;18.17;12.40;;;;;;;16.34;82.81;100689.41;4988535;28;20046;-67
2021/09/09 02:30:58;;;;;;;18.00;11.73;;;;;;;16.35;82.71;100689.34;4985297;28;20050;-68
2021/09/09 02:33:26;;;;;;;19.30;12.32;;;;;;;16.35;83.06;100697.22;4983084;28;20066;-68
2021/09/09 02:35:52;;;;;;;21.63;12.90;;;;;;;16.27;83.02;100689.66;4986056;28;20054;-68
2021/09/09 02:38:19;;;;;;;16.98;12.07;;;;;;;16.15;83.48;100685.81;4981340;28;20057;-68
2021/09/09 02:40:45;;;;;;;20.10;12.68;;;;;;;16.20;83.62;100687.41;4987602;28;20516;-68
2021/09/09 02:43:11;;;;;;;21.55;13.63;;;;;;;16.23;83.48;100684.63;4988221;28;20058;-68
2021/09/09 02:45:38;;;;;;;19.88;12.23;;;;;;;16.24;83.74;100687.19;4986898;28;20104;-68
2021/09/09 02:48:05;;;;;;;18.58;12.77;;;;;;;16.23;83.56;100684.63;4987499;28;20046;-68
2021/09/09 02:50:33;;;;;;;19.25;12.75;;;;;;;16.26;83.37;100681.88;4990702;28;20042;-66
2021/09/09 02:53:00;;;;;;;16.70;12.45;;;;;;;16.21;83.29;100683.88;4992318;28;20455;-68
2021/09/09 02:55:26;;;;;;;19.63;12.80;;;;;;;16.19;83.44;100685.69;4983293;28;20058;-68
2021/09/09 02:57:53;;;;;;;18.75;12.75;;;;;;;16.17;83.64;100689.22;4983298;28;20050;-67
2021/09/09 03:00:20;;;;;;;19.30;12.65;;;;;;;16.15;83.36;100687.59;4987985;28;20039;-67
2021/09/09 03:02:47;;;;;;;18.50;12.70;;;;;;;16.16;83.40;100686.69;4988205;28;20053;-68
2021/09/09 03:05:14;;;;;;;22.90;13.20;;;;;;;16.13;83.49;100682.41;4985347;28;20050;-70
2021/09/09 03:07:42;;;;;;;23.63;12.88;;;;;;;16.09;83.78;100677.34;4983405;28;20495;-68
2021/09/09 03:10:09;;;;;;;23.42;13.02;;;;;;;16.06;83.58;100678.34;4983113;28;20123;-67
2021/09/09 03:12:36;;;;;;;22.15;12.70;;;;;;;16.04;83.97;100680.19;4990079;28;20124;-67
2021/09/09 03:15:02;;;;;;;19.80;12.55;;;;;;;16.00;83.94;100676.84;4983249;28;20046;-67
2021/09/09 03:17:29;;;;;;;20.25;12.05;;;;;;;15.96;84.01;100684.91;4986466;28;20045;-68
2021/09/09 03:19:55;;;;;;;20.00;12.48;;;;;;;15.96;84.15;100679.66;4985107;28;20046;-67
2021/09/09 03:22:22;;;;;;;21.70;12.25;;;;;;;15.95;84.32;100681.44;4986268;28;20042;-68
2021/09/09 03:24:50;;;;;;;22.90;12.73;;;;;;;15.99;83.93;100676.91;4986300;28;20519;-67
2021/09/09 03:27:16;;;;;;;23.83;13.43;;;;;;;15.92;83.54;100672.84;4988532;28;20073;-66
2021/09/09 03:29:43;;;;;;;20.50;11.82;;;;;;;16.00;84.20;100673.38;4989888;28;20046;-68
2021/09/09 03:32:09;;;;;;;20.83;11.25;;;;;;;15.97;84.42;100671.72;4984535;28;20053;-68
2021/09/09 03:34:36;;;;;;;19.35;12.45;;;;;;;15.96;83.81;100671.78;4978532;28;20038;-68
2021/09/09 03:37:02;;;;;;;21.30;13.27;;;;;;;15.95;84.11;100677.94;4985409;28;20046;-67
2021/09/09 03:39:29;;;;;;;19.67;11.80;;;;;;;15.93;83.89;100675.41;4984845;28;20042;-69
2021/09/09 03:41:56;;;;;;;19.17;12.18;;;;;;;15.95;83.91;100680.56;4991391;28;20061;-68
2021/09/09 03:44:23;;;;;;;17.77;12.65;;;;;;;15.94;83.88;100678.88;4984792;28;20046;-68
2021/09/09 03:46:49;;;;;;;16.75;12.23;;;;;;;15.93;83.85;100679.78;4984516;28;20061;-68
2021/09/09 03:49:16;;;;;;;20.80;13.25;;;;;;;15.92;83.93;100685.97;4985361;28;20404;-68
2021/09/09 03:51:42;;;;;;;18.42;12.57;;;;;;;15.88;84.06;100684.38;4987766;28;20046;-68
2021/09/09 03:54:08;;;;;;;20.55;13.85;;;;;;;15.83;83.95;100684.53;4982435;28;20488;-68
2021/09/09 03:56:35;;;;;;;18.90;12.55;;;;;;;15.79;84.40;100691.69;4973646;28;20515;-67
2021/09/09 03:59:03;;;;;;;17.52;12.30;;;;;;;15.82;84.44;100688.09;4981580;28;20046;-67
2021/09/09 04:01:29;;;;;;;18.67;12.98;;;;;;;15.76;84.65;100689.19;4987055;28;20112;-67
2021/09/09 04:03:55;;;;;;;22.42;12.13;;;;;;;15.72;84.47;100687.63;4986833;28;20050;-66
2021/09/09 04:06:22;;;;;;;19.17;12.93;;;;;;;15.74;84.35;100692.81;4980341;28;20046;-67
2021/09/09 04:08:48;;;;;;;21.70;12.57;;;;;;;15.69;84.15;100685.13;4982734;28;20133;-68
2021/09/09 04:11:15;;;;;;;18.65;12.07;;;;;;;15.65;84.48;100687.03;4988922;28;20049;-68
2021/09/09 04:13:41;;;;;;;21.45;13.20;;;;;;;15.67;84.81;100681.72;4984366;28;20153;-68
2021/09/09 04:16:09;;;;;;;19.98;13.40;;;;;;;15.68;85.28;100675.56;4982252;28;20046;-68
2021/09/09 04:18:36;;;;;;;19.15;12.68;;;;;;;15.67;85.46;100679.09;4987874;28;20042;-68
2021/09/09 04:21:02;;;;;;;18.10;12.18;;;;;;;15.65;85.12;100665.19;4993424;28;20075;-68
2021/09/09 04:23:28;;;;;;;22.58;13.77;;;;;;;15.65;85.16;100667.81;4990185;28;20046;-68
2021/09/09 04:25:55;;;;;;;24.60;13.48;;;;;;;15.60;85.32;100662.75;4986617;28;20523;-68
2021/09/09 04:28:21;;;;;;;19.40;12.88;;;;;;;15.57;85.61;100667.28;4987117;28;20057;-68
2021/09/09 04:30:49;;;;;;;20.35;13.38;;;;;;;15.55;85.82;100662.94;4987732;28;20039;-67
2021/09/09 04:33:17;;;;;;;22.45;13.45;;;;;;;15.55;86.06;100655.09;4987072;28;20077;-67
2021/09/09 04:35:43;;;;;;;25.15;14.23;;;;;;;15.47;86.52;100662.41;4990383;28;20511;-68
2021/09/09 04:38:10;;;;;;;21.42;14.07;;;;;;;15.51;86.61;100666.63;4991985;28;20458;-68
2021/09/09 04:40:36;;;;;;;18.30;13.15;;;;;;;15.54;86.49;100660.41;4986441;28;20049;-68
2021/09/09 04:43:04;;;;;;;21.75;13.27;;;;;;;15.55;86.14;100664.72;4990926;28;20065;-68
2021/09/09 04:45:30;;;;;;;23.20;14.38;;;;;;;15.56;86.16;100666.44;4989770;28;20085;-67
2021/09/09 04:47:57;;;;;;;24.73;13.68;;;;;;;15.57;86.39;100664.66;4984380;28;20054;-68
2021/09/09 04:50:25;;;;;;;25.40;14.57;;;;;;;15.54;86.33;100663.84;4985337;28;20035;-68
2021/09/09 04:52:51;;;;;;;23.40;13.68;;;;;;;15.54;86.26;100663.84;4992036;28;20404;-66
2021/09/09 04:55:18;;;;;;;22.23;13.93;;;;;;;15.57;86.45;100656.78;4989601;28;20495;-66
2021/09/09 04:57:44;;;;;;;20.77;13.43;;;;;;;15.53;86.72;100661.31;4987061;28;20489;-66
2021/09/09 05:00:11;;;;;;;22.83;13.07;;;;;;;15.51;86.76;100650.91;4987537;28;20057;-66
2021/09/09 05:02:38;;;;;;;23.73;14.88;;;;;;;15.50;87.13;100658.81;4991708;28;20448;-67
2021/09/09 05:05:05;;;;;;;19.90;13.48;;;;;;;15.42;87.03;100653.03;4986592;28;20418;-65
2021/09/09 05:07:34;;;;;;;28.02;14.40;;;;;;;15.39;87.43;100651.41;4986323;28;20034;-67
2021/09/09 05:10:01;;;;;;;23.73;14.43;;;;;;;15.37;87.06;100658.47;4986296;28;20055;-67
2021/09/09 05:12:27;;;;;;;24.15;14.13;;;;;;;15.36;87.04;100660.25;4991109;28;20049;-66
2021/09/09 05:14:54;;;;;;;26.30;13.35;;;;;;;15.36;87.15;100657.63;4983142;28;20046;-66
2021/09/09 05:17:20;;;;;;;24.75;14.25;;;;;;;15.37;87.10;100661.06;4990627;28;20042;-66
2021/09/09 05:19:47;;;;;;;27.90;14.05;;;;;;;15.40;87.31;100653.09;4983195;28;20452;-69
2021/09/09 05:22:13;;;;;;;25.17;13.85;;;;;;;15.61;91.71;100655.75;4989868;28;20050;-70
2021/09/09 05:24:41;;;;;;;26.20;13.57;;;;;;;15.76;92.50;100660.34;4985204;28;20046;-67
2021/09/09 05:27:07;;;;;;;25.73;13.45;;;;;;;15.92;91.84;100651.88;4990098;28;20055;-67
2021/09/09 05:29:34;;;;;;;20.75;13.23;;;;;;;16.06;90.21;100644.25;4991338;28;20109;-67
2021/09/09 05:32:00;;;;;;;25.85;12.77;;;;;;;16.16;89.39;100656.03;4983369;28;20045;-67
2021/09/09 05:34:27;;;;;;;19.48;12.60;;;;;;;16.30;88.30;100651.97;4986618;28;20042;-67
2021/09/09 05:36:53;;;;;;;18.58;12.18;;;;;;;16.44;87.27;100648.72;4988987;28;20054;-68
2021/09/09 05:39:20;;;;;;;27.33;13.57;;;;;;;16.54;86.60;100654.38;4985999;28;20050;-68
2021/09/09 05:41:47;;;;;;;16.17;11.82;;;;;;;16.65;86.15;100657.38;4984891;28;20484;-68
2021/09/09 05:44:14;;;;;;;19.75;12.75;;;;;;;16.75;85.25;100656.03;4989179;28;20683;-67
2021/09/09 05:46:40;;;;;;;22.58;13.23;;;;;;;16.84;84.38;100660.00;4992444;28;20046;-67
2021/09/09 05:49:07;;;;;;;24.65;12.77;;;;;;;16.93;84.13;100656.97;4984037;28;20581;-68
2021/09/09 05:51:33;;;;;;;26.27;13.32;;;;;;;16.99;83.60;100655.84;4991372;28;20046;-67
2021/09/09 05:54:00;;;;;;;23.55;12.95;;;;;;;17.07;83.13;100658.06;4983883;28;20046;-68
2021/09/09 05:56:26;;;;;;;22.77;12.95;;;;;;;17.10;82.56;100652.69;4987612;28;20046;-68
2021/09/09 05:58:54;;;;;;;23.52;13.45;;;;;;;17.12;82.43;100653.47;4989687;28;20050;-69
2021/09/09 06:01:20;;;;;;;24.42;12.40;;;;;;;17.17;82.54;100653.25;4990261;28;20043;-68
2021/09/09 06:03:47;;;;;;;27.60;13.35;;;;;;;17.21;82.06;100652.19;4988534;28;20042;-68
2021/09/09 06:06:15;;;;;;;23.95;12.57;;;;;;;17.22;82.05;100653.84;4981142;28;20061;-68
2021/09/09 06:08:44;;;;;;;21.63;13.32;;;;;;;17.23;82.35;100653.81;4992297;28;20041;-68
2021/09/09 06:11:10;;;;;;;21.60;12.32;;;;;;;17.29;82.09;100647.41;4981084;28;20129;-67
2021/09/09 06:13:37;;;;;;;20.48;12.73;;;;;;;17.39;81.69;100639.91;4987242;28;20121;-70
2021/09/09 06:16:05;;;;;;;24.20;12.63;;;;;;;17.44;81.53;100648.44;4990559;28;20069;-68
2021/09/09 06:18:32;;;;;;;22.42;13.07;;;;;;;17.52;81.29;100650.66;4988729;28;20066;-68
2021/09/09 06:20:58;;;;;;;23.55;14.00;;;;;;;17.56;80.62;100650.44;4987207;28;20065;-69
2021/09/09 06:23:25;;;;;;;22.67;12.82;;;;;;;17.52;80.78;100648.03;4982112;28;20038;-69
2021/09/09 06:25:51;;;;;;;24.38;12.57;;;;;;;17.48;80.61;100643.84;4981968;28;20514;-68
2021/09/09 06:28:18;;;;;;;21.75;13.02;;;;;;;17.44;80.86;100651.06;4986906;28;20038;-68
2021/09/09 06:30:44;;;;;;;20.77;12.65;;;;;;;17.45;80.43;100651.88;4984959;28;20042;-68
2021/09/09 06:33:12;;;;;;;19.38;12.52;;;;;;;17.47;79.78;100655.31;4982950;28;20047;-68
2021/09/09 06:35:38;;;;;;;23.15;12.32;;;;;;;17.50;79.78;100650.75;4988040;28;20062;-68
2021/09/09 06:38:05;;;;;;;18.92;13.13;;;;;;;17.54;79.26;100647.03;4987565;28;20053;-68
2021/09/09 06:40:31;;;;;;;20.42;13.05;;;;;;;17.59;78.93;100648.56;4983542;28;20535;-68
2021/09/09 06:42:58;;;;;;;20.52;12.60;;;;;;;17.63;78.76;100647.50;4987009;28;20523;-69
2021/09/09 06:45:24;;;;;;;17.35;11.13;;;;;;;17.68;79.00;100648.97;4985417;28;20071;-69
2021/09/09 06:47:51;;;;;;;19.83;12.07;;;;;;;17.70;78.80;100647.13;4984587;28;20058;-69
2021/09/09 06:50:19;;;;;;;17.65;11.23;;;;;;;17.82;78.16;100635.13;4990961;28;20046;-69
2021/09/09 06:52:45;;;;;;;21.40;11.52;;;;;;;17.90;77.75;100645.25;4988594;28;20046;-69
2021/09/09 06:55:12;;;;;;;17.80;11.07;;;;;;;17.88;77.75;100641.84;4985113;28;20044;-68
2021/09/09 06:57:38;;;;;;;22.63;11.40;;;;;;;17.98;78.20;100642.22;4984668;28;20062;-68
2021/09/09 07:00:06;;;;;;;16.35;10.82;;;;;;;18.06;77.87;100647.09;4986442;28;20054;-68
2021/09/09 07:02:33;;;;;;;20.02;11.40;;;;;;;18.15;77.49;100644.00;4986793;28;20046;-69
2021/09/09 07:04:59;;;;;;;15.02;10.80;;;;;;;18.32;76.52;100635.22;4987552;28;20046;-70
2021/09/09 07:07:27;;;;;;;20.70;10.23;;;;;;;18.39;75.81;100638.38;4985921;28;20053;-68
2021/09/09 07:09:53;;;;;;;20.00;11.40;;;;;;;18.43;75.76;100639.88;4983996;28;20134;-70
2021/09/09 07:12:20;;;;;;;17.20;9.77;;;;;;;18.51;75.72;100642.13;4988289;28;20070;-68
2021/09/09 07:14:46;;;;;;;15.18;9.65;;;;;;;18.55;75.43;100633.13;4983910;28;20644;-70
2021/09/09 07:17:13;;;;;;;17.13;9.75;;;;;;;18.57;75.08;100637.38;4985494;28;20062;-69
2021/09/09 07:19:39;;;;;;;16.70;9.35;;;;;;;18.70;74.36;100637.53;4985790;28;20054;-69
2021/09/09 07:22:05;;;;;;;17.25;10.25;;;;;;;18.80;74.11;100637.91;4981072;28;20047;-69
2021/09/09 07:24:33;;;;;;;15.85;9.27;;;;;;;18.83;74.27;100634.22;4985127;28;20045;-69
2021/09/09 07:27:00;;;;;;;15.10;9.23;;;;;;;18.94;74.03;100638.00;4986484;28;20042;-68
2021/09/09 07:29:26;;;;;;;16.92;9.30;;;;;;;19.08;73.61;100644.28;4987033;28;20050;-69
2021/09/09 07:31:53;;;;;;;15.80;9.32;;;;;;;19.18;73.28;100649.88;4982716;28;20049;-69
2021/09/09 07:34:19;;;;;;;15.75;9.13;;;;;;;19.22;73.31;100646.97;4982459;28;20053;-69
2021/09/09 07:36:45;;;;;;;14.13;9.68;;;;;;;19.25;73.13;100640.69;4984936;28;20046;-69
2021/09/09 07:39:12;;;;;;;14.82;8.95;;;;;;;19.26;73.51;100653.78;4983632;28;20412;-69
2021/09/09 07:41:40;;;;;;;14.50;9.70;;;;;;;19.35;73.46;100651.53;4988596;28;20035;-70
2021/09/09 07:44:06;;;;;;;13.65;9.93;;;;;;;19.45;72.90;100652.72;4991370;28;20300;-69
2021/09/09 07:46:34;;;;;;;15.75;9.15;;;;;;;19.53;72.28;100647.00;4990268;28;20042;-70
2021/09/09 07:49:00;;;;;;;18.30;10.18;;;;;;;19.58;72.25;100653.72;4988185;28;20448;-69
2021/09/09 07:51:27;;;;;;;15.23;9.05;;;;;;;19.61;72.19;100652.66;4984964;28;20637;-69
2021/09/09 07:53:55;;;;;;;16.38;10.13;;;;;;;19.65;72.39;100651.56;4979424;28;20397;-69
2021/09/09 07:56:21;;;;;;;16.25;9.55;;;;;;;19.78;71.41;100649.03;4984516;28;20050;-70
2021/09/09 07:58:49;;;;;;;26.00;10.13;;;;;;;19.85;71.59;100644.25;4984730;28;20046;-70
2021/09/09 08:01:17;;;;;;;15.05;9.90;;;;;;;19.87;71.62;100658.22;4986879;28;20051;-70
2021/09/09 08:03:44;;;;;;;16.17;9.07;;;;;;;19.93;71.00;100657.00;4991075;28;20073;-69
2021/09/09 08:06:10;;;;;;;13.52;8.77;;;;;;;20.10;69.66;100656.84;4983405;28;20514;-68
2021/09/09 08:08:37;;;;;;;17.50;10.15;;;;;;;20.30;68.44;100662.72;4983721;28;20695;-69
2021/09/09 08:11:03;;;;;;;22.98;9.07;;;;;;;20.28;68.89;100670.72;4982637;28;20042;-70
2021/09/09 08:13:30;;;;;;;15.60;9.15;;;;;;;20.33;68.88;100665.13;4983678;28;20069;-69
2021/09/09 08:15:57;;;;;;;16.10;9.73;;;;;;;20.43;68.87;100676.00;4985842;28;20050;-69
2021/09/09 08:18:24;;;;;;;24.45;11.45;;;;;;;20.50;68.45;100672.91;4985483;28;20554;-69
2021/09/09 08:20:51;;;;;;;16.58;9.40;;;;;;;20.54;68.82;100667.41;4987854;28;20077;-69
2021/09/09 08:23:17;;;;;;;18.50;9.95;;;;;;;20.59;69.18;100673.25;4982858;28;20042;-69
2021/09/09 08:25:44;;;;;;;17.02;9.52;;;;;;;20.62;69.70;100665.13;4988387;28;20057;-69
2021/09/09 08:28:10;;;;;;;19.10;9.63;;;;;;;20.72;69.26;100668.03;4990947;28;20046;-69
2021/09/09 08:30:37;;;;;;;17.58;9.55;;;;;;;20.76;69.18;100662.50;4979657;28;20043;-69
2021/09/09 08:33:04;;;;;;;17.00;9.80;;;;;;;20.81;69.20;100667.50;4986573;28;20038;-70
2021/09/09 08:35:31;;;;;;;21.50;9.75;;;;;;;20.81;68.57;100663.03;4983898;28;20055;-69
2021/09/09 08:37:57;;;;;;;17.42;9.95;;;;;;;20.88;68.60;100652.94;4984669;28;20046;-70
2021/09/09 08:40:24;;;;;;;16.88;9.30;;;;;;;21.27;66.15;100663.69;4982916;28;20141;-70
2021/09/09 08:42:52;;;;;;;19.10;9.30;;;;;;;21.25;66.90;100661.16;4986948;28;20051;-69
2021/09/09 08:45:18;;;;;;;20.70;8.70;;;;;;;21.30;67.05;100652.91;4984153;28;20054;-69
2021/09/09 08:47:48;;;;;;;17.77;9.02;;;;;;;21.26;67.06;100664.63;4979776;28;20047;-70
2021/09/09 08:50:16;;;;;;;14.02;8.95;;;;;;;21.34;67.10;100657.03;4984872;28;20046;-70
2021/09/09 08:52:44;;;;;;;18.45;8.73;;;;;;;21.50;65.46;100658.66;4982143;28;20061;-69
2021/09/09 08:55:11;;;;;;;16.83;8.10;;;;;;;21.62;65.07;100668.44;4984829;28;20447;-69
2021/09/09 08:57:38;;;;;;;14.88;7.72;;;;;;;21.68;64.88;100668.06;4986334;28;20061;-73
2021/09/09 09:00:05;;;;;;;14.40;7.95;;;;;;;21.81;64.44;100667.22;4987050;28;20050;-69
2021/09/09 09:02:32;;;;;;;15.40;8.30;;;;;;;21.78;64.42;100672.72;4983771;28;20039;-69
2021/09/09 09:05:03;;;;;;;13.30;8.10;;;;;;;21.92;63.86;100675.25;4985073;28;20436;-69
2021/09/09 09:07:33;;;;;;;18.65;8.45;;;;;;;21.96;64.14;100667.97;4988193;28;20519;-69
2021/09/09 09:10:03;;;;;;;17.85;7.65;;;;;;;21.98;64.60;100661.63;4988771;28;20076;-69
2021/09/09 09:12:39;;;;;;;13.07;7.28;;;;;;;22.00;64.02;100659.72;4984333;28;20780;-69
2021/09/09 09:15:14;;;;;;;11.27;7.20;;;;;;;22.07;64.18;100652.19;4990980;28;20080;-69
2021/09/09 09:18:02;;;;;;;15.75;7.00;;;;;;;22.11;64.53;100653.66;4989656;28;20042;-67
2021/09/09 09:20:46;;;;;;;14.60;7.63;;;;;;;22.31;63.55;100654.91;4988328;28;20442;-68
2021/09/09 09:23:17;;;;;;;12.95;7.50;;;;;;;22.50;62.77;100657.16;4988164;28;20041;-68
2021/09/09 09:25:45;;;;;;;12.98;7.55;;;;;;;22.53;63.08;100661.38;4989137;28;20038;-68
2021/09/09 09:28:11;;;;;;;12.63;6.85;;;;;;;22.56;63.15;100668.28;4985855;28;20049;-68
2021/09/09 09:30:38;;;;;;;15.05;7.47;;;;;;;22.68;62.96;100656.78;4992011;28;20045;-68
2021/09/09 09:33:04;;;;;;;11.27;7.57;;;;;;;22.78;62.85;100663.13;4991727;28;20045;-68
2021/09/09 09:35:31;;;;;;;14.80;7.20;;;;;;;22.71;63.16;100655.75;4987103;28;20042;-68
2021/09/09 09:38:01;;;;;;;14.73;7.28;;;;;;;22.88;62.80;100663.31;4987366;28;20055;-68
2021/09/09 09:40:30;;;;;;;16.23;7.40;;;;;;;22.96;63.20;100660.94;4988119;28;20054;-68
2021/09/09 09:42:57;;;;;;;13.38;7.22;;;;;;;23.10;61.84;100664.41;4990580;28;20131;-68
2021/09/09 09:45:24;;;;;;;13.43;7.05;;;;;;;23.12;61.78;100665.13;4982858;28;20034;-69
2021/09/09 09:47:50;;;;;;;13.32;7.25;;;;;;;23.26;61.17;100665.00;4989724;28;20077;-68
2021/09/09 09:50:19;;;;;;;17.38;8.00;;;;;;;23.24;61.45;100666.91;4990319;28;20572;-67
2021/09/09 09:52:46;;;;;;;12.27;7.25;;;;;;;23.28;61.71;100659.56;4984391;28;20101;-68
2021/09/09 09:55:13;;;;;;;13.70;7.75;;;;;;;23.32;61.22;100660.16;4988176;28;20045;-68
2021/09/09 09:57:53;;;;;;;13.00;7.28;;;;;;;23.28;62.10;100670.19;4989186;28;20051;-68
2021/09/09 10:00:20;;;;;;;12.02;7.10;;;;;;;23.31;62.41;100669.13;4985222;28;20054;-70
2021/09/09 10:02:47;;;;;;;14.32;7.30;;;;;;;23.42;62.89;100670.00;4986309;28;21931;-68
2021/09/09 10:05:14;;;;;;;16.00;8.95;;;;;;;23.52;61.91;100662.19;4987805;28;20092;-68
2021/09/09 10:07:40;;;;;;;15.55;7.70;;;;;;;23.51;62.60;100660.50;4985973;28;20050;-67
2021/09/09 10:10:07;;;;;;;17.08;8.20;;;;;;;23.60;62.01;100661.63;4988415;28;20058;-67
2021/09/09 10:12:34;;;;;;;19.50;9.13;;;;;;;23.65;62.45;100666.56;4990963;28;20046;-68
2021/09/09 10:15:06;;;;;;;16.10;8.98;;;;;;;23.71;62.15;100666.09;4987913;28;20042;-68
2021/09/09 10:17:34;;;;;;;16.73;8.18;;;;;;;23.71;62.75;100666.09;4986578;28;20058;-69
2021/09/09 10:20:28;;;;;;;15.70;8.52;;;;;;;23.76;62.49;100667.44;4988600;28;20046;-68
2021/09/09 10:23:05;;;;;;;13.60;8.65;;;;;;;23.66;62.65;100662.97;4988213;28;20070;-68
2021/09/09 10:25:43;;;;;;;15.35;9.02;;;;;;;23.76;62.87;100655.97;4988905;28;20043;-68
2021/09/09 10:28:40;;;;;;;12.90;9.15;;;;;;;23.97;61.93;100663.31;4983419;28;20049;-69
2021/09/09 10:31:09;;;;;;;15.52;8.82;;;;;;;23.91;62.12;100665.41;4982335;28;20049;-68
2021/09/09 10:33:38;;;;;;;15.48;9.15;;;;;;;23.94;61.75;100659.03;4990153;28;20403;-67
2021/09/09 10:36:04;;;;;;;13.75;8.68;;;;;;;23.97;62.01;100658.00;4988282;28;20053;-68
2021/09/09 10:38:33;;;;;;;20.48;9.52;;;;;;;24.00;62.43;100660.41;4982068;28;20428;-68
2021/09/09 10:41:03;;;;;;;13.90;8.30;;;;;;;24.01;62.28;100662.06;4987505;28;20050;-68
2021/09/09 10:43:51;;;;;;;15.95;9.15;;;;;;;24.18;61.57;100656.31;4989154;28;20053;-68
2021/09/09 10:46:19;;;;;;;19.20;9.40;;;;;;;24.18;62.12;100655.47;4988040;28;20428;-67
2021/09/09 10:49:04;;;;;;;13.73;8.73;;;;;;;24.18;62.50;100643.03;4986215;28;20038;-68
2021/09/09 10:51:30;;;;;;;17.27;8.73;;;;;;;24.22;62.52;100648.94;4984578;28;20124;-68
2021/09/09 10:53:58;;;;;;;13.93;8.45;;;;;;;24.28;62.42;100640.47;4980996;28;20049;-69
2021/09/09 10:56:26;;;;;;;13.35;8.27;;;;;;;24.29;62.29;100644.84;4989391;28;20046;-67
2021/09/09 10:59:13;;;;;;;14.23;8.68;;;;;;;24.49;61.40;100639.75;4987573;28;20077;-68
2021/09/09 11:01:43;;;;;;;19.00;9.32;;;;;;;24.67;60.22;100643.59;4989884;28;20384;-68
2021/09/09 11:04:26;;;;;;;17.98;9.68;;;;;;;24.67;60.86;100646.25;4982924;28;20446;-68
2021/09/09 11:06:52;;;;;;;18.58;8.93;;;;;;;24.67;61.08;100648.06;4982138;28;21541;-68
2021/09/09 11:09:19;;;;;;;14.60;8.55;;;;;;;24.64;61.77;100640.31;4987991;28;20046;-68
2021/09/09 11:11:47;;;;;;;19.55;8.15;;;;;;;24.68;62.11;100641.81;4989856;28;20049;-67
2021/09/09 11:14:14;;;;;;;14.55;8.35;;;;;;;24.80;62.11;100638.16;4990946;28;20038;-68